createdAt,value
2019-01-29T00:04:58.287Z,97141.85
2019-01-29T00:10:02.248Z,97138.83
2019-01-29T00:15:06.179Z,97147.48
2019-01-29T00:20:10.497Z,97143.61
2019-01-29T00:25:14.580Z,97154.72
2019-01-29T00:30:18.409Z,97159.00
2019-01-29T00:35:22.128Z,97162.81
2019-01-29T00:40:26.083Z,97162.24
2019-01-29T00:45:32.953Z,97178.73
2019-01-29T00:50:36.637Z,97165.81
2019-01-29T00:55:40.580Z,97166.80
2019-01-29T01:00:44.392Z,97179.63
2019-01-29T01:05:48.041Z,97188.27
2019-01-29T01:10:51.897Z,97172.98
2019-01-29T01:15:56.598Z,97177.16
2019-01-29T01:21:01.102Z,97186.42
2019-01-29T01:26:05.089Z,97184.36
2019-01-29T01:31:09.102Z,97181.70
2019-01-29T01:36:13.018Z,97183.88
2019-01-29T01:41:16.964Z,97185.31
2019-01-29T01:46:20.965Z,97182.36
2019-01-29T01:51:24.967Z,97181.37
2019-01-29T01:56:29.027Z,97180.81
2019-01-29T02:01:33.404Z,97171.44
2019-01-29T02:06:40.240Z,97174.52
2019-01-29T02:11:43.897Z,97168.16
2019-01-29T02:16:47.550Z,97170.24
2019-01-29T02:21:51.807Z,97174.50
2019-01-29T02:26:57.281Z,97162.80
2019-01-29T02:32:01.057Z,97165.53
2019-01-29T02:37:05.547Z,97161.25
2019-01-29T02:42:09.632Z,97163.09
2019-01-29T02:47:13.299Z,97163.64
2019-01-29T02:52:16.970Z,97171.69
2019-01-29T02:57:20.702Z,97171.88
2019-01-29T03:02:24.623Z,97161.70
2019-01-29T03:07:28.373Z,97167.75
2019-01-29T03:12:32.462Z,97160.77
2019-01-29T03:17:36.129Z,97162.49
2019-01-29T03:22:39.985Z,97168.96
2019-01-29T03:27:46.856Z,97156.12
2019-01-29T03:32:50.583Z,97164.82
2019-01-29T03:37:54.534Z,97171.05
2019-01-29T03:42:58.633Z,97174.12
2019-01-29T03:48:02.307Z,97181.10
2019-01-29T03:53:05.968Z,97171.55
2019-01-29T03:58:10.273Z,97178.76
2019-01-29T04:03:16.083Z,97169.69
2019-01-29T04:08:22.297Z,97168.58
2019-01-29T04:13:26.210Z,97173.56
2019-01-29T04:18:29.986Z,97169.56
2019-01-29T04:23:34.403Z,97184.06
2019-01-29T04:28:38.885Z,97185.80
2019-01-29T04:33:43.068Z,97192.62
2019-01-29T04:38:47.236Z,97189.78
2019-01-29T04:43:51.170Z,97183.27
2019-01-29T04:48:54.890Z,97183.33
2019-01-29T04:53:58.968Z,97193.12
2019-01-29T04:59:05.679Z,97193.49
2019-01-29T05:04:09.547Z,97205.64
2019-01-29T05:09:13.201Z,97216.53
2019-01-29T05:14:18.142Z,97221.73
2019-01-29T05:19:24.976Z,97214.99
2019-01-29T05:24:29.683Z,97230.17
2019-01-29T05:29:41.165Z,97228.03
2019-01-29T05:34:44.921Z,97230.41
2019-01-29T05:39:48.731Z,97227.84
2019-01-29T05:44:52.985Z,97230.27
2019-01-29T05:49:56.730Z,97237.32
2019-01-29T05:55:00.612Z,97238.91
2019-01-29T06:00:07.251Z,97243.00
2019-01-29T06:05:11.530Z,97230.38
2019-01-29T06:10:15.282Z,97233.56
2019-01-29T06:15:19.158Z,97240.87
2019-01-29T06:20:24.066Z,97247.96
2019-01-29T06:25:28.637Z,97251.59
2019-01-29T06:30:32.304Z,97262.30
2019-01-29T06:35:36.255Z,97268.67
2019-01-29T06:40:40.681Z,97260.85
2019-01-29T06:45:44.370Z,97257.81
2019-01-29T06:50:48.280Z,97262.83
2019-01-29T06:55:51.939Z,97257.44
2019-01-29T07:00:56.049Z,97262.11
2019-01-29T07:05:59.702Z,97255.34
2019-01-29T07:11:04.803Z,97247.84
2019-01-29T07:16:28.739Z,97265.22
2019-01-29T07:21:32.537Z,97263.47
2019-01-29T07:26:36.556Z,97259.55
2019-01-29T07:31:40.365Z,97263.77
2019-01-29T07:36:44.865Z,97267.92
2019-01-29T07:41:48.993Z,97269.40
2019-01-29T07:46:53.161Z,97270.58
2019-01-29T07:51:57.937Z,97275.48
2019-01-29T07:57:01.706Z,97275.41
2019-01-29T08:02:05.589Z,97280.27
2019-01-29T08:07:09.409Z,97276.27
2019-01-29T08:12:13.796Z,97277.14
2019-01-29T08:17:17.905Z,97290.25
2019-01-29T08:22:21.613Z,97285.72
2019-01-29T08:27:25.985Z,97296.28
2019-01-29T08:32:30.013Z,97289.88
2019-01-29T08:37:40.814Z,97289.67
2019-01-29T08:42:44.786Z,97286.89
2019-01-29T08:47:48.564Z,97285.91
2019-01-29T08:52:52.380Z,97282.67
2019-01-29T08:57:56.152Z,97287.19
2019-01-29T09:02:59.941Z,97283.07
2019-01-29T09:08:04.178Z,97291.00
2019-01-29T09:13:07.898Z,97278.53
2019-01-29T09:18:11.673Z,97298.50
2019-01-29T09:23:17.163Z,97289.05
2019-01-29T09:28:21.285Z,97289.70
2019-01-29T09:33:25.280Z,97295.48
2019-01-29T09:38:29.265Z,97285.65
2019-01-29T09:43:33.408Z,97285.41
2019-01-29T09:48:37.064Z,97278.96
2019-01-29T09:53:40.951Z,97279.28
2019-01-29T09:58:44.821Z,97275.67
2019-01-29T10:03:48.499Z,97266.90
2019-01-29T10:08:52.906Z,97272.95
2019-01-29T10:13:57.849Z,97256.45
2019-01-29T10:19:01.679Z,97254.31
2019-01-29T10:24:05.647Z,97262.02
2019-01-29T10:29:11.776Z,97256.30
2019-01-29T10:34:18.101Z,97251.91
2019-01-29T10:39:21.883Z,97241.12
2019-01-29T10:44:26.528Z,97237.06
2019-01-29T10:49:30.375Z,97240.41
2019-01-29T10:54:34.218Z,97237.66
2019-01-29T10:59:37.893Z,97232.98
2019-01-29T11:04:42.308Z,97228.64
2019-01-29T11:09:46.219Z,97218.95
2019-01-29T11:14:49.905Z,97206.79
2019-01-29T11:19:54.476Z,97204.32
2019-01-29T11:24:58.330Z,97203.45
2019-01-29T11:30:03.262Z,97202.83
2019-01-29T11:35:10.083Z,97187.77
2019-01-29T11:40:17.951Z,97175.30
2019-01-29T11:45:33.725Z,97174.84
2019-01-29T11:50:38.174Z,97177.16
2019-01-29T11:55:42.949Z,97171.62
2019-01-29T12:01:12.226Z,97165.83
2019-01-29T12:06:17.447Z,97178.98
2019-01-29T12:11:21.495Z,97191.62
2019-01-29T12:16:25.385Z,97181.02
2019-01-29T12:21:29.432Z,97171.23
2019-01-29T12:26:33.442Z,97172.38
2019-01-29T12:31:37.940Z,97151.88
2019-01-29T12:36:42.203Z,97154.66
2019-01-29T12:41:46.517Z,97152.86
2019-01-29T12:46:50.848Z,97161.43
2019-01-29T12:52:13.398Z,97166.89
2019-01-29T12:57:17.655Z,97172.21
2019-01-29T13:02:21.678Z,97168.03
2019-01-29T13:07:28.416Z,97169.34
2019-01-29T13:12:33.082Z,97177.16
2019-01-29T13:17:37.419Z,97176.06
2019-01-29T13:22:41.351Z,97190.04
2019-01-29T13:27:45.164Z,97191.95
2019-01-29T13:32:49.243Z,97202.69
2019-01-29T13:37:53.098Z,97204.05
2019-01-29T13:42:56.764Z,97201.15
2019-01-29T13:48:01.064Z,97200.42
2019-01-29T13:53:05.495Z,97206.15
2019-01-29T13:58:09.935Z,97216.33
2019-01-29T14:03:13.923Z,97223.20
2019-01-29T14:08:19.193Z,97232.49
2019-01-29T14:13:23.038Z,97232.88
2019-01-29T14:18:29.354Z,97239.31
2019-01-29T14:23:33.030Z,97238.59
2019-01-29T14:28:36.700Z,97237.06
2019-01-29T14:33:40.753Z,97240.09
2019-01-29T14:39:09.496Z,97238.09
2019-01-29T14:44:34.532Z,97241.58
2019-01-29T14:49:39.788Z,97248.61
2019-01-29T14:54:45.854Z,97251.91
2019-01-29T14:59:49.585Z,97254.55
2019-01-29T15:04:53.319Z,97239.08
2019-01-29T15:09:57.041Z,97219.98
2019-01-29T15:15:00.744Z,97215.63
2019-01-29T15:20:06.295Z,97214.93
2019-01-29T15:25:10.677Z,97213.48
2019-01-29T15:30:22.987Z,97219.73
2019-01-29T15:35:27.712Z,97219.02
2019-01-29T15:40:33.810Z,97223.09
2019-01-29T15:45:37.548Z,97220.83
2019-01-29T15:50:42.580Z,97218.69
2019-01-29T15:55:46.265Z,97219.54
2019-01-29T16:00:50.004Z,97230.86
2019-01-29T16:05:53.743Z,97227.00
2019-01-29T16:10:57.550Z,97230.28
2019-01-29T16:16:01.491Z,97227.54
2019-01-29T16:21:05.232Z,97220.40
2019-01-29T16:26:08.975Z,97212.22
2019-01-29T16:31:12.827Z,97197.85
2019-01-29T16:36:16.750Z,97258.41
2019-01-29T16:41:20.732Z,97233.63
2019-01-29T16:46:24.501Z,97239.91
2019-01-29T16:51:30.190Z,97219.80
2019-01-29T16:56:36.459Z,97231.77
2019-01-29T17:01:40.131Z,97229.80
2019-01-29T17:06:44.647Z,97236.34
2019-01-29T17:11:48.484Z,97240.06
2019-01-29T17:16:52.656Z,97232.58
2019-01-29T17:21:56.467Z,97243.05
2019-01-29T17:27:00.133Z,97249.01
2019-01-29T17:32:04.045Z,97254.81
2019-01-29T17:37:11.485Z,97256.16
2019-01-29T17:42:15.200Z,97251.10
2019-01-29T17:47:19.013Z,97245.47
2019-01-29T17:52:22.802Z,97249.02
2019-01-29T17:57:26.561Z,97241.98
2019-01-29T18:02:33.009Z,97247.23
2019-01-29T18:07:37.017Z,97245.47
2019-01-29T18:12:40.644Z,97248.67
2019-01-29T18:17:45.415Z,97241.84
2019-01-29T18:22:49.189Z,97240.05
2019-01-29T18:28:00.972Z,97239.31
2019-01-29T18:32:59.004Z,97246.88
2019-01-29T18:38:03.460Z,97240.72
2019-01-29T18:43:07.535Z,97241.81
2019-01-29T18:48:11.370Z,97249.48
2019-01-29T18:53:16.506Z,97249.48
2019-01-29T18:58:20.291Z,97244.52
2019-01-29T19:03:24.098Z,97248.50
2019-01-29T19:08:28.266Z,97245.28
2019-01-29T19:13:32.208Z,97251.70
2019-01-29T19:18:36.081Z,97248.73
2019-01-29T19:23:39.995Z,97239.58
2019-01-29T19:28:43.824Z,97244.30
2019-01-29T19:33:47.672Z,97255.86
2019-01-29T19:38:51.951Z,97255.30
2019-01-29T19:43:55.761Z,97247.30
2019-01-29T19:48:59.686Z,97240.09
2019-01-29T19:54:04.119Z,97237.28
2019-01-29T19:59:07.925Z,97240.05
2019-01-29T20:04:11.653Z,97240.60
2019-01-29T20:09:15.514Z,97245.96
2019-01-29T20:14:20.860Z,97242.87
2019-01-29T20:19:25.103Z,97243.50
2019-01-29T20:24:32.069Z,97236.47
2019-01-29T20:29:36.186Z,97233.14
2019-01-29T20:34:39.947Z,97242.17
2019-01-29T20:39:44.220Z,97230.41
2019-01-29T20:44:47.902Z,97230.00
2019-01-29T20:49:51.625Z,97235.44
2019-01-29T20:54:55.460Z,97229.17
2019-01-29T20:59:59.222Z,97225.15
2019-01-29T21:05:03.873Z,97218.06
2019-01-29T21:10:10.056Z,97216.14
2019-01-29T21:15:15.405Z,97216.75
2019-01-29T21:20:21.277Z,97214.22
2019-01-29T21:25:25.057Z,97212.55
2019-01-29T21:30:30.831Z,97207.95
2019-01-29T21:35:34.753Z,97207.45
2019-01-29T21:40:38.981Z,97197.38
2019-01-29T21:45:42.781Z,97199.73
2019-01-29T21:50:46.485Z,97206.73
2019-01-29T21:55:50.931Z,97208.05
2019-01-29T22:00:54.693Z,97211.11
2019-01-29T22:05:58.474Z,97204.43
2019-01-29T22:11:02.156Z,97197.05
2019-01-29T22:16:05.886Z,97202.64
2019-01-29T22:21:09.658Z,97190.89
2019-01-29T22:26:14.946Z,97188.58
2019-01-29T22:31:18.670Z,97186.08
2019-01-29T22:36:22.727Z,97185.16
2019-01-29T22:41:27.158Z,97185.14
2019-01-29T22:46:31.847Z,97176.70
2019-01-29T22:51:38.444Z,97177.30
2019-01-29T22:56:42.520Z,97164.31
2019-01-29T23:01:46.561Z,97158.87
2019-01-29T23:07:01.889Z,97155.73
2019-01-29T23:12:06.676Z,97151.84
2019-01-29T23:17:10.610Z,97154.27
2019-01-29T23:22:14.752Z,97145.03
2019-01-29T23:27:18.469Z,97135.61
2019-01-29T23:32:22.185Z,97126.12
2019-01-29T23:37:28.500Z,97134.40
2019-01-29T23:42:33.174Z,97128.50
2019-01-29T23:47:38.677Z,97125.99
2019-01-29T23:52:42.556Z,97131.17
2019-01-29T23:57:46.390Z,97139.81
